Array ( [0] => 2016/02/10 23:00 [1] => LEIB 102300Z 19012KT CAVOK 17/13 Q1011 WS R24 NOSIG ) Sa Trinxa - Ibiza
picture

Partner

adSpot
Chicaria Records
Ibiza global radio
Ibiza Sonica
Partysan
Pioneer Pro DJ